Terminal Aerodrome Forecast
Issued by NWS Pueblo, CO

Home | Current Version | Previous Version | Text Only | Print | Product List | Glossary On
Versions: 1 2 3 4 5 6 7 8 9 10 11 12 13 14 15 16
000
FTUS45 KPUB 220530
TAFPUB
TAF
KPUB 220530Z 2206/2306 VRB06KT P6SM SKC
     FM221500 16008KT P6SM FEW250
     FM221800 20020G30KT P6SM FEW130 SCT250
     FM222100 20028G38KT P6SM SCT130 SCT250
     FM230100 22012KT P6SM SCT130 BKN250=

USA.gov is the U.S. government's official web portal to all federal, state and local government web resources and services.